Brownsville South Padre Island International Airport
KBRO : now visible

Airfield :











YOU CAN JOIN US ON...

 
LOGIN :

Register | Disclaimer

   EN    FR    IT 

 









Legend :    VFR   Marginal VFR   IFR   Intensive IFR   Very Intensive IFR
Visi :
Ceiling :
>= 8 km
>= 3000ft
5 to 8 km
1000 to 3000 ft
1500m to 5 km
500 to 1000 ft
800 to 1500m
200 to 500 ft
< 800m
< 200 ft
Symbols :   Thunderstorms  Fog  Heavy snow  Heavy precipitations  Wind > 20 kt






- Airport Elevation : 22 ft
- IATA code : BRO


KBRO - Brownsville South Padre Island International

CURRENT METAR :
  • 030053Z 13012G20KT 10SM BKN019 BKN024 OVC042 26/21 A2978 RMK AO2 SLP084 T02560211

EXPIRED METARs :
  • 022353Z 12013KT 10SM FEW020 BKN029 OVC038 27/21 A2978 RMK AO2 SLP083 T02670211 10306 20267 53004
  • 022310Z 12014KT 10SM BKN024 BKN033 BKN041 27/21 A2977 RMK AO2 T02720211
  • 022253Z 13017KT 10SM FEW024 SCT029 BKN038 28/21 A2977 RMK AO2 SLP079 T02780206

TAF KBRO
Valid from the 03 at 00:00 until the 04 at 00:00 UTC


022329Z 0300/0324 12015G22KT P6SM BKN025
FM030300 14008KT P6SM BKN020
FM031400 14015G22KT P6SM BKN040



MET'MAP, your aeronautical weather chart ! - Copyright ORBIFLY December 2007 - Disclaimer

ORBIFLY MET'MAP TEAM :

Programming & Development : Alexandra Zaïnal
Concept & original design : Baudouin d'Aumeries
Assistance for programming : Marc-Olivier Méhu
Technical & hardware support : Manuel Goepfert

Contact : metmap@orbifly.com




SOURCES & CREDITS :

   NOAA       Earth
Advisory